createdAt,value
2023-03-19T00:02:27.324Z,13.57
2023-03-19T00:07:28.966Z,13.52
2023-03-19T00:12:30.485Z,13.44
2023-03-19T00:17:32.211Z,13.36
2023-03-19T00:22:33.751Z,13.32
2023-03-19T00:27:37.358Z,13.30
2023-03-19T00:32:39.521Z,13.27
2023-03-19T00:37:41.827Z,13.28
2023-03-19T00:42:44.793Z,13.26
2023-03-19T00:47:46.355Z,13.25
2023-03-19T00:52:48.201Z,13.23
2023-03-19T00:57:49.765Z,13.21
2023-03-19T01:02:51.720Z,13.19
2023-03-19T01:07:53.341Z,13.19
2023-03-19T01:12:54.954Z,13.16
2023-03-19T01:17:57.047Z,13.14
2023-03-19T01:22:58.835Z,13.11
2023-03-19T01:28:00.459Z,13.08
2023-03-19T01:33:02.123Z,13.07
2023-03-19T01:38:22.093Z,13.02
2023-03-19T01:43:29.557Z,12.99
2023-03-19T01:48:55.054Z,12.94
2023-03-19T01:54:00.619Z,12.91
2023-03-19T01:59:22.064Z,12.87
2023-03-19T02:04:44.749Z,12.82
2023-03-19T02:09:46.939Z,12.78
2023-03-19T02:14:48.785Z,12.75
2023-03-19T02:20:00.031Z,12.69
2023-03-19T02:25:24.673Z,12.64
2023-03-19T02:30:33.062Z,12.55
2023-03-19T02:35:40.465Z,12.44
2023-03-19T02:41:01.618Z,12.34
2023-03-19T02:46:05.797Z,12.24
2023-03-19T02:51:07.433Z,12.17
2023-03-19T02:56:08.978Z,12.12
2023-03-19T03:01:11.024Z,12.07
2023-03-19T03:06:12.818Z,12.03
2023-03-19T03:11:15.480Z,12.03
2023-03-19T03:16:17.373Z,12.02
2023-03-19T03:21:21.311Z,12.01
2023-03-19T03:26:23.009Z,12.02
2023-03-19T03:31:24.598Z,12.00
2023-03-19T03:36:27.440Z,11.99
2023-03-19T03:41:28.977Z,11.98
2023-03-19T03:46:30.703Z,11.94
2023-03-19T03:51:32.883Z,11.89
2023-03-19T03:56:34.662Z,11.83
2023-03-19T04:01:36.577Z,11.77
2023-03-19T04:06:57.487Z,11.72
2023-03-19T04:12:15.903Z,11.66
2023-03-19T04:17:18.173Z,11.66
2023-03-19T04:22:20.805Z,11.66
2023-03-19T04:27:22.374Z,11.65
2023-03-19T04:32:25.043Z,11.65
2023-03-19T04:37:27.127Z,11.66
2023-03-19T04:42:28.994Z,11.65
2023-03-19T04:47:47.304Z,11.62
2023-03-19T04:52:49.665Z,11.63
2023-03-19T04:57:51.579Z,11.65
2023-03-19T05:02:55.875Z,11.66
2023-03-19T05:07:58.147Z,11.69
2023-03-19T05:13:00.789Z,11.68
2023-03-19T05:18:02.469Z,11.67
2023-03-19T05:23:12.280Z,11.64
2023-03-19T05:28:37.954Z,11.63
2023-03-19T05:33:39.861Z,11.60
2023-03-19T05:38:41.720Z,11.61
2023-03-19T05:43:48.899Z,11.61
2023-03-19T05:49:05.921Z,11.62
2023-03-19T05:54:07.600Z,11.63
2023-03-19T05:59:11.639Z,11.63
2023-03-19T06:04:18.013Z,11.63
2023-03-19T06:09:19.801Z,11.63
2023-03-19T06:14:28.093Z,11.63
2023-03-19T06:19:55.410Z,11.67
2023-03-19T06:24:57.040Z,11.67
2023-03-19T06:29:58.622Z,11.68
2023-03-19T06:35:06.559Z,11.67
2023-03-19T06:40:08.863Z,11.67
2023-03-19T06:45:10.779Z,11.70
2023-03-19T06:50:13.124Z,11.72
2023-03-19T06:55:14.745Z,11.74
2023-03-19T07:00:18.590Z,11.74
2023-03-19T07:05:20.232Z,11.75
2023-03-19T07:10:22.547Z,11.75
2023-03-19T07:15:24.093Z,11.77
2023-03-19T07:20:25.883Z,11.79
2023-03-19T07:25:27.506Z,11.85
2023-03-19T07:30:29.030Z,11.82
2023-03-19T07:35:31.342Z,11.86
2023-03-19T07:40:33.258Z,11.87
2023-03-19T07:45:34.874Z,11.93
2023-03-19T07:50:36.526Z,12.02
2023-03-19T07:55:38.480Z,12.09
2023-03-19T08:00:40.020Z,12.19
2023-03-19T08:05:41.955Z,12.25
2023-03-19T08:10:43.785Z,12.29
2023-03-19T08:15:45.423Z,12.37
2023-03-19T08:20:46.993Z,12.47
2023-03-19T08:25:48.720Z,12.56
2023-03-19T08:30:50.276Z,12.64
2023-03-19T08:35:52.234Z,12.72
2023-03-19T08:41:02.030Z,12.76
2023-03-19T08:46:05.017Z,12.87
2023-03-19T08:51:06.550Z,12.94
2023-03-19T08:56:08.608Z,12.97
2023-03-19T09:01:12.865Z,12.99
2023-03-19T09:06:14.971Z,12.97
2023-03-19T09:11:18.019Z,12.98
2023-03-19T09:16:19.830Z,13.02
2023-03-19T09:21:21.541Z,13.08
2023-03-19T09:26:23.126Z,13.17
2023-03-19T09:31:24.792Z,13.25
2023-03-19T09:36:26.628Z,13.30
2023-03-19T09:41:31.444Z,13.33
2023-03-19T09:46:44.378Z,13.41
2023-03-19T09:52:09.713Z,13.39
2023-03-19T09:57:13.217Z,13.46
2023-03-19T10:02:22.460Z,13.53
2023-03-19T10:07:40.505Z,13.60
2023-03-19T10:12:55.679Z,13.66
2023-03-19T10:18:05.228Z,13.75
2023-03-19T10:23:18.923Z,13.73
2023-03-19T10:28:22.087Z,13.78
2023-03-19T10:33:26.437Z,13.79
2023-03-19T10:38:28.182Z,13.82
2023-03-19T10:43:31.622Z,13.86
2023-03-19T10:48:34.694Z,13.78
2023-03-19T10:53:38.128Z,13.83
2023-03-19T10:58:40.692Z,13.81
2023-03-19T11:03:42.336Z,13.86
2023-03-19T11:08:55.872Z,13.93
2023-03-19T11:13:57.860Z,13.98
2023-03-19T11:18:59.373Z,14.01
2023-03-19T11:24:03.448Z,14.08
2023-03-19T11:29:05.933Z,14.11
2023-03-19T11:34:33.989Z,14.17
2023-03-19T11:39:41.476Z,14.23
2023-03-19T11:45:18.736Z,14.25
2023-03-19T11:50:27.084Z,14.25
2023-03-19T11:55:42.179Z,14.22
2023-03-19T12:00:50.770Z,14.26
2023-03-19T12:06:28.501Z,14.35
2023-03-19T12:12:13.841Z,14.39
2023-03-19T12:17:37.909Z,14.47
2023-03-19T12:22:57.616Z,14.55
2023-03-19T12:28:18.061Z,14.72
2023-03-19T12:33:48.744Z,14.85
2023-03-19T12:38:56.257Z,15.04
2023-03-19T12:44:23.240Z,15.19
2023-03-19T12:49:30.326Z,15.26
2023-03-19T12:54:38.221Z,15.44
2023-03-19T12:59:54.626Z,15.68
2023-03-19T13:05:01.546Z,15.89
2023-03-19T13:10:09.620Z,15.99
2023-03-19T13:15:22.086Z,16.06
2023-03-19T13:20:51.041Z,16.12
2023-03-19T13:25:57.712Z,16.17
2023-03-19T13:31:19.283Z,16.27
2023-03-19T13:36:21.062Z,16.43
2023-03-19T13:41:39.630Z,16.55
2023-03-19T13:46:44.921Z,16.69
2023-03-19T13:51:50.575Z,16.79
2023-03-19T13:57:18.232Z,16.93
2023-03-19T14:02:22.978Z,17.04
2023-03-19T14:07:28.758Z,17.10
2023-03-19T14:12:34.273Z,17.16
2023-03-19T14:17:54.689Z,17.21
2023-03-19T14:23:08.886Z,17.27
2023-03-19T14:28:11.184Z,17.28
2023-03-19T14:33:44.388Z,17.19
2023-03-19T14:39:01.888Z,17.13
2023-03-19T14:44:15.862Z,17.12
2023-03-19T14:49:32.647Z,17.14
2023-03-19T14:54:49.137Z,17.15
2023-03-19T14:59:51.055Z,17.16
2023-03-19T15:04:54.911Z,17.17
2023-03-19T15:10:06.663Z,17.15
2023-03-19T15:15:32.508Z,17.12
2023-03-19T15:20:42.482Z,17.04
2023-03-19T15:25:47.842Z,16.97
2023-03-19T15:31:05.694Z,16.90
2023-03-19T15:36:17.774Z,16.93
2023-03-19T15:41:24.343Z,16.87
2023-03-19T15:46:38.404Z,16.96
2023-03-19T15:51:41.232Z,17.09
2023-03-19T15:56:45.323Z,17.24
2023-03-19T16:01:50.313Z,17.45
2023-03-19T16:06:52.365Z,17.54
2023-03-19T16:11:57.609Z,17.56
2023-03-19T16:17:09.264Z,17.66
2023-03-19T16:22:16.949Z,17.83
2023-03-19T16:27:45.577Z,18.04
2023-03-19T16:32:58.433Z,18.23
2023-03-19T16:38:22.910Z,18.35
2023-03-19T16:43:34.328Z,18.39
2023-03-19T16:48:39.236Z,18.36
2023-03-19T16:53:41.152Z,18.30
2023-03-19T16:58:44.199Z,18.19
2023-03-19T17:03:49.538Z,18.06
2023-03-19T17:08:54.953Z,17.89
2023-03-19T17:14:00.632Z,17.69
2023-03-19T17:19:04.728Z,17.48
2023-03-19T17:24:34.307Z,17.25
2023-03-19T17:29:36.799Z,17.07
2023-03-19T17:34:40.481Z,16.90
2023-03-19T17:39:45.768Z,16.70
2023-03-19T17:44:49.678Z,16.50
2023-03-19T17:49:52.415Z,16.28
2023-03-19T17:54:53.957Z,16.04
2023-03-19T17:59:55.577Z,15.84
2023-03-19T18:04:57.915Z,15.65
2023-03-19T18:09:59.399Z,15.49
2023-03-19T18:15:00.921Z,15.33
2023-03-19T18:20:07.182Z,15.21
2023-03-19T18:25:18.447Z,15.10
2023-03-19T18:30:25.880Z,15.02
2023-03-19T18:35:37.073Z,14.95
2023-03-19T18:40:40.927Z,14.89
2023-03-19T18:45:45.984Z,14.81
2023-03-19T18:50:48.483Z,14.77
2023-03-19T18:55:53.715Z,14.74
2023-03-19T19:00:58.480Z,14.70
2023-03-19T19:06:02.521Z,14.62
2023-03-19T19:11:09.335Z,14.49
2023-03-19T19:16:20.571Z,14.42
2023-03-19T19:21:22.212Z,14.36
2023-03-19T19:26:29.696Z,14.27
2023-03-19T19:31:33.927Z,14.21
2023-03-19T19:36:40.579Z,14.17
2023-03-19T19:41:43.771Z,14.16
2023-03-19T19:46:45.726Z,14.12
2023-03-19T19:51:49.730Z,14.11
2023-03-19T19:56:52.233Z,14.09
2023-03-19T20:01:55.217Z,14.06
2023-03-19T20:06:59.132Z,13.88
2023-03-19T20:12:09.671Z,13.80
2023-03-19T20:17:16.207Z,13.81
2023-03-19T20:22:20.171Z,13.79
2023-03-19T20:27:26.380Z,13.77
2023-03-19T20:32:36.818Z,13.78
2023-03-19T20:37:39.796Z,13.81
2023-03-19T20:42:43.294Z,13.83
2023-03-19T20:47:44.998Z,13.86
2023-03-19T20:52:49.184Z,13.88
2023-03-19T20:57:56.614Z,13.85
2023-03-19T21:03:01.961Z,13.78
2023-03-19T21:08:17.357Z,13.74
2023-03-19T21:13:19.388Z,13.77
2023-03-19T21:18:30.263Z,13.77
2023-03-19T21:23:38.687Z,13.77
2023-03-19T21:28:45.427Z,13.73
2023-03-19T21:33:51.567Z,13.66
2023-03-19T21:38:53.228Z,13.72
2023-03-19T21:43:59.609Z,13.76
2023-03-19T21:49:03.793Z,13.80
2023-03-19T21:54:05.878Z,13.80
2023-03-19T21:59:16.601Z,13.78
2023-03-19T22:04:23.005Z,13.74
2023-03-19T22:09:29.497Z,13.71
2023-03-19T22:14:31.085Z,13.68
2023-03-19T22:19:32.656Z,13.65
2023-03-19T22:24:38.630Z,13.61
2023-03-19T22:29:40.798Z,13.57
2023-03-19T22:34:47.590Z,13.55
2023-03-19T22:39:49.251Z,13.54
2023-03-19T22:44:54.563Z,13.53
2023-03-19T22:49:56.243Z,13.49
2023-03-19T22:54:57.878Z,13.48
2023-03-19T22:59:59.477Z,13.47
2023-03-19T23:05:01.991Z,13.46
2023-03-19T23:10:15.498Z,13.44
2023-03-19T23:15:20.921Z,13.40
2023-03-19T23:20:26.085Z,13.38
2023-03-19T23:25:33.209Z,13.35
2023-03-19T23:30:37.171Z,13.35
2023-03-19T23:35:40.202Z,13.35
2023-03-19T23:40:46.208Z,13.37
2023-03-19T23:45:52.587Z,13.35
2023-03-19T23:50:59.071Z,13.31
2023-03-19T23:56:07.713Z,13.32
